Time;durP1;ratioP1;P1;durP2;ratioP2;P2;SDS_P1;SDS_P2;PMS_P1;PMS_P2;Temp;Humidity;BMP_temperature;BMP_pressure;BME280_temperature;BME280_humidity;BME280_pressure;Samples;Min_cycle;Max_cycle;Signal;HPM_P1;HPM_P2
2022/10/27 00:02:20;;;;;;;6.03;2.87;;;;;;;14.61;82.63;101159.78;5048871;28;20404;-79
2022/10/27 00:04:45;;;;;;;8.47;2.90;;;;;;;14.64;82.87;101162.00;5051637;28;20425;-79
2022/10/27 00:07:11;;;;;;;5.67;3.17;;;;;;;14.64;82.89;101166.63;5049903;28;20768;-78
2022/10/27 00:09:36;;;;;;;8.75;2.75;;;;;;;14.60;82.61;101170.91;5038150;28;20413;-79
2022/10/27 00:12:01;;;;;;;4.07;2.63;;;;;;;14.59;82.69;101166.56;5054808;28;20401;-79
2022/10/27 00:14:27;;;;;;;8.85;3.30;;;;;;;14.55;82.53;101164.31;5035918;28;20399;-79
2022/10/27 00:16:55;;;;;;;6.03;3.03;;;;;;;14.53;82.51;101155.56;5053824;28;20401;-79
2022/10/27 00:19:22;;;;;;;8.50;2.85;;;;;;;14.46;82.99;101165.03;5052337;28;20440;-78
2022/10/27 00:21:47;;;;;;;9.52;2.92;;;;;;;14.43;82.76;101160.91;5031872;28;20893;-78
2022/10/27 00:24:12;;;;;;;9.00;3.33;;;;;;;14.43;82.53;101158.19;5051187;28;20425;-79
2022/10/27 00:26:38;;;;;;;7.22;3.13;;;;;;;14.39;82.40;101143.38;5051288;28;20476;-78
2022/10/27 00:29:03;;;;;;;5.10;3.10;;;;;;;14.40;82.38;101155.97;5045817;28;20397;-78
2022/10/27 00:31:28;;;;;;;5.90;2.70;;;;;;;14.43;81.97;101149.16;5053298;28;20401;-79
2022/10/27 00:33:53;;;;;;;6.90;2.70;;;;;;;14.43;81.98;101152.72;5032844;28;20912;-79
2022/10/27 00:36:23;;;;;;;8.67;2.90;;;;;;;14.42;81.80;101155.72;5048524;28;20405;-79
2022/10/27 00:38:52;;;;;;;7.95;3.10;;;;;;;14.40;81.58;101157.84;5048670;28;20411;-79
2022/10/27 00:41:37;;;;;;;7.68;2.95;;;;;;;14.39;81.49;101162.47;5046131;28;20419;-79
2022/10/27 00:44:41;;;;;;;7.90;2.67;;;;;;;14.35;81.45;101157.81;5049197;28;20418;-79
2022/10/27 00:47:19;;;;;;;9.67;2.70;;;;;;;14.33;81.48;101155.31;5052818;28;20406;-79
2022/10/27 00:49:56;;;;;;;11.90;3.13;;;;;;;14.29;81.64;101156.06;5053192;28;20433;-79
2022/10/27 00:52:33;;;;;;;4.72;2.55;;;;;;;14.26;81.49;101151.13;5032937;28;20406;-78
2022/10/27 00:55:08;;;;;;;10.30;2.95;;;;;;;14.23;81.40;101146.13;5035402;28;20413;-78
2022/10/27 00:57:34;;;;;;;11.70;2.33;;;;;;;14.23;81.61;101157.03;5049300;28;20750;-79
2022/10/27 01:00:03;;;;;;;7.45;2.90;;;;;;;14.22;81.43;101147.25;5052188;28;20463;-79
2022/10/27 01:02:30;;;;;;;4.65;2.55;;;;;;;14.22;81.37;101141.78;5049433;28;20405;-79
2022/10/27 01:05:13;;;;;;;8.55;2.95;;;;;;;14.22;81.15;101141.78;5042135;28;20415;-79
2022/10/27 01:07:41;;;;;;;9.45;2.80;;;;;;;14.20;81.33;101141.19;5048457;28;20394;-78
2022/10/27 01:10:07;;;;;;;6.32;3.00;;;;;;;14.19;81.39;101143.13;5024488;28;20824;-78
2022/10/27 01:12:33;;;;;;;6.32;2.40;;;;;;;14.15;81.42;101136.50;5044919;28;20446;-79
2022/10/27 01:14:58;;;;;;;3.37;2.43;;;;;;;14.13;81.19;101143.31;5044805;28;20397;-78
2022/10/27 01:17:34;;;;;;;3.63;2.60;;;;;;;14.12;81.07;101147.09;5047660;28;20401;-78
2022/10/27 01:20:31;;;;;;;2.30;2.20;;;;;;;14.09;80.91;101153.88;5046652;28;20404;-78
2022/10/27 01:23:16;;;;;;;3.88;2.30;;;;;;;14.00;80.76;101142.56;5049312;28;20897;-79
2022/10/27 01:26:06;;;;;;;3.80;2.08;;;;;;;13.93;80.75;101141.91;5051585;28;20408;-78
2022/10/27 01:29:05;;;;;;;7.35;2.00;;;;;;;13.87;80.86;101144.81;5047943;28;20405;-79
2022/10/27 01:31:47;;;;;;;3.45;2.42;;;;;;;13.87;80.80;101152.97;5032539;28;20851;-79
2022/10/27 01:34:28;;;;;;;2.00;1.80;;;;;;;13.85;80.89;101160.59;5030929;28;20902;-79
2022/10/27 01:37:00;;;;;;;4.78;2.10;;;;;;;13.80;81.33;101153.16;5042410;28;20810;-79
2022/10/27 01:39:36;;;;;;;2.10;1.90;;;;;;;13.85;81.18;101144.25;5046911;28;20401;-79
2022/10/27 01:42:08;;;;;;;7.38;2.10;;;;;;;13.87;80.80;101148.38;5058121;28;20914;-79
2022/10/27 01:44:40;;;;;;;2.65;2.20;;;;;;;13.89;80.91;101145.41;5050210;28;20452;-79
2022/10/27 01:47:07;;;;;;;11.00;2.63;;;;;;;13.90;80.79;101145.13;5050854;28;20409;-79
2022/10/27 01:49:37;;;;;;;3.80;2.30;;;;;;;13.89;81.03;101138.06;5056677;28;20432;-79
2022/10/27 01:52:06;;;;;;;7.70;2.50;;;;;;;13.87;80.97;101123.84;5041823;28;20395;-79
2022/10/27 01:54:35;;;;;;;2.58;2.20;;;;;;;13.86;81.03;101133.09;5054221;28;20405;-79
2022/10/27 01:57:06;;;;;;;3.33;1.70;;;;;;;13.86;80.97;101135.00;5032138;28;20462;-79
2022/10/27 01:59:56;;;;;;;3.70;2.00;;;;;;;13.85;80.70;101142.34;5048540;28;20411;-78
2022/10/27 02:02:45;;;;;;;3.85;2.10;;;;;;;13.80;80.85;101136.81;5046352;28;20876;-78
2022/10/27 02:05:29;;;;;;;4.93;1.83;;;;;;;13.75;80.97;101131.31;5055866;28;20457;-78
2022/10/27 02:07:58;;;;;;;2.50;2.03;;;;;;;13.75;80.72;101120.41;5045749;28;20955;-79
2022/10/27 02:10:29;;;;;;;5.43;2.10;;;;;;;13.73;80.82;101125.25;5048298;28;20401;-79
2022/10/27 02:12:55;;;;;;;4.63;1.90;;;;;;;13.73;80.99;101119.00;5046094;28;20397;-78
2022/10/27 02:15:31;;;;;;;3.90;2.03;;;;;;;13.69;80.69;101120.56;5048307;28;20455;-79
2022/10/27 02:18:02;;;;;;;5.83;2.20;;;;;;;13.65;80.62;101119.41;5051492;28;20409;-79
2022/10/27 02:20:33;;;;;;;4.57;2.43;;;;;;;13.61;80.47;101129.16;5048399;28;20520;-78
2022/10/27 02:23:06;;;;;;;7.93;2.60;;;;;;;13.59;80.56;101143.03;5052508;28;20433;-78
2022/10/27 02:25:38;;;;;;;5.80;2.85;;;;;;;13.51;81.10;101141.53;5031408;28;20411;-79
2022/10/27 02:28:08;;;;;;;3.45;2.40;;;;;;;13.48;81.40;101142.03;5051961;28;20437;-79
2022/10/27 02:30:34;;;;;;;4.53;2.55;;;;;;;13.43;81.24;101138.41;5033970;28;20451;-79
2022/10/27 02:33:00;;;;;;;3.92;2.80;;;;;;;13.51;81.11;101133.38;5037495;28;20398;-78
2022/10/27 02:35:25;;;;;;;5.93;2.97;;;;;;;13.36;81.65;101124.97;5057569;28;20410;-79
2022/10/27 02:37:51;;;;;;;6.97;2.58;;;;;;;13.24;81.99;101124.19;5049299;28;20402;-78
2022/10/27 02:40:16;;;;;;;6.80;2.30;;;;;;;13.28;82.36;101128.09;5042224;28;20463;-79
2022/10/27 02:42:42;;;;;;;6.83;2.67;;;;;;;13.34;81.92;101123.53;5047668;28;20420;-78
2022/10/27 02:45:07;;;;;;;3.20;2.90;;;;;;;13.40;81.55;101128.81;5054375;28;20425;-79
2022/10/27 02:47:33;;;;;;;5.07;2.63;;;;;;;13.44;81.28;101134.59;5048066;28;20397;-78
2022/10/27 02:49:58;;;;;;;2.93;2.73;;;;;;;13.45;81.23;101136.25;5048296;28;20448;-78
2022/10/27 02:52:23;;;;;;;5.80;2.30;;;;;;;13.48;81.48;101141.22;5053013;28;20405;-78
2022/10/27 02:54:49;;;;;;;4.07;3.13;;;;;;;13.44;81.13;101135.44;5049721;28;20414;-79
2022/10/27 02:57:16;;;;;;;2.87;2.60;;;;;;;13.41;81.20;101135.94;5051574;28;20420;-78
2022/10/27 02:59:41;;;;;;;5.63;2.88;;;;;;;13.42;81.20;101139.47;5052467;28;20884;-78
2022/10/27 03:02:07;;;;;;;5.67;2.83;;;;;;;13.43;81.17;101136.53;5028914;28;20412;-78
2022/10/27 03:04:32;;;;;;;8.73;3.70;;;;;;;13.43;80.95;101130.25;5050130;28;20432;-78
2022/10/27 03:06:57;;;;;;;4.77;2.70;;;;;;;13.43;80.86;101130.25;5035827;28;20461;-78
2022/10/27 03:09:23;;;;;;;8.70;2.97;;;;;;;13.39;81.34;101132.63;5053009;28;20436;-78
2022/10/27 03:11:48;;;;;;;4.27;2.97;;;;;;;13.38;81.23;101120.09;5053411;28;20452;-78
2022/10/27 03:14:13;;;;;;;5.43;4.10;;;;;;;13.38;81.56;101119.25;5051968;28;20490;-79
2022/10/27 03:16:39;;;;;;;6.30;3.70;;;;;;;13.37;81.20;101120.34;5051755;28;20415;-78
2022/10/27 03:19:04;;;;;;;8.10;3.90;;;;;;;13.38;81.30;101119.25;5031352;28;20641;-79
2022/10/27 03:21:29;;;;;;;4.50;3.63;;;;;;;13.35;81.20;101125.19;5049014;28;20409;-79
2022/10/27 03:23:54;;;;;;;4.80;3.20;;;;;;;13.33;80.97;101128.19;5025045;28;20409;-79
2022/10/27 03:26:20;;;;;;;4.33;3.97;;;;;;;13.32;81.09;101125.69;5049875;28;20474;-78
2022/10/27 03:28:45;;;;;;;6.35;3.65;;;;;;;13.33;81.16;101124.63;5047953;28;20416;-78
2022/10/27 03:31:10;;;;;;;6.77;4.10;;;;;;;13.34;80.94;101123.53;5051549;28;20484;-79
2022/10/27 03:33:36;;;;;;;5.70;3.50;;;;;;;13.34;81.14;101118.94;5034824;28;20393;-79
2022/10/27 03:36:01;;;;;;;6.00;3.57;;;;;;;13.33;81.20;101122.75;5051265;28;20496;-78
2022/10/27 03:38:26;;;;;;;7.20;3.23;;;;;;;13.31;80.87;101129.47;5037119;28;20413;-78
2022/10/27 03:40:52;;;;;;;3.73;3.13;;;;;;;13.23;80.93;101130.72;5055740;28;20397;-78
2022/10/27 03:43:17;;;;;;;8.17;3.50;;;;;;;13.22;80.74;101139.97;5036484;28;20401;-79
2022/10/27 03:45:47;;;;;;;4.00;3.07;;;;;;;13.18;80.80;101138.78;5036690;28;20791;-78
2022/10/27 03:48:13;;;;;;;2.97;2.78;;;;;;;13.13;80.48;101137.88;5057516;28;20407;-78
2022/10/27 03:50:38;;;;;;;5.57;2.80;;;;;;;13.09;80.56;101134.81;5052023;28;20888;-78
2022/10/27 03:53:04;;;;;;;3.60;3.20;;;;;;;13.08;80.37;101132.31;5053389;28;20734;-78
2022/10/27 03:55:31;;;;;;;7.10;3.40;;;;;;;13.06;80.37;101137.19;5056883;28;20872;-79
2022/10/27 03:57:56;;;;;;;3.70;3.30;;;;;;;13.04;80.15;101140.13;5050083;28;20494;-78
2022/10/27 04:00:22;;;;;;;4.10;2.57;;;;;;;13.05;79.85;101146.41;5051014;28;20478;-78
2022/10/27 04:02:47;;;;;;;8.20;2.97;;;;;;;13.00;80.16;101133.56;5051995;28;20409;-78
2022/10/27 04:05:13;;;;;;;4.03;2.70;;;;;;;12.99;80.09;101137.34;5053240;28;20425;-78
2022/10/27 04:07:38;;;;;;;4.77;2.27;;;;;;;12.96;80.22;101141.38;5051990;28;20517;-78
2022/10/27 04:10:04;;;;;;;4.55;2.50;;;;;;;12.95;80.01;101147.88;5054487;28;20393;-78
2022/10/27 04:12:29;;;;;;;2.72;2.30;;;;;;;12.95;79.71;101142.44;5046305;28;20394;-78
2022/10/27 04:14:55;;;;;;;5.87;2.60;;;;;;;12.95;79.52;101141.59;5050203;28;20407;-79
2022/10/27 04:17:20;;;;;;;3.53;3.07;;;;;;;12.95;79.72;101134.28;5044795;28;20414;-79
2022/10/27 04:19:45;;;;;;;4.23;3.00;;;;;;;12.91;79.71;101130.38;5048077;28;20404;-78
2022/10/27 04:22:11;;;;;;;16.65;4.25;;;;;;;12.90;79.75;101127.91;5054103;28;20393;-78
2022/10/27 04:24:39;;;;;;;5.70;3.97;;;;;;;12.91;80.08;101129.56;5049589;28;20471;-78
2022/10/27 04:27:05;;;;;;;7.05;4.13;;;;;;;12.91;80.31;101124.09;5052852;28;20459;-78
2022/10/27 04:29:30;;;;;;;11.82;3.88;;;;;;;12.90;80.23;101122.47;5044674;28;20897;-78
2022/10/27 04:31:55;;;;;;;7.50;4.40;;;;;;;12.89;80.14;101105.31;5032403;28;20527;-77
2022/10/27 04:34:20;;;;;;;9.53;4.03;;;;;;;12.92;80.37;101113.00;5054130;28;20393;-78
2022/10/27 04:36:46;;;;;;;22.30;4.63;;;;;;;12.92;80.20;101106.72;5052081;28;20753;-78
2022/10/27 04:39:13;;;;;;;10.20;3.92;;;;;;;12.91;80.37;101111.34;5056134;28;20736;-79
2022/10/27 04:41:38;;;;;;;24.87;4.40;;;;;;;12.87;80.29;101104.75;5045554;28;20429;-81
2022/10/27 04:44:04;;;;;;;11.27;3.67;;;;;;;12.85;80.55;101104.16;5050783;28;20409;-80
2022/10/27 04:46:29;;;;;;;16.00;4.63;;;;;;;12.83;81.04;101106.31;5045068;28;20562;-79
2022/10/27 04:48:55;;;;;;;9.88;3.83;;;;;;;12.85;80.92;101112.31;5049960;28;20407;-81
2022/10/27 04:51:20;;;;;;;9.07;3.57;;;;;;;12.80;80.98;101106.81;5029734;28;20558;-79
2022/10/27 04:53:45;;;;;;;4.43;3.80;;;;;;;12.80;81.10;101114.13;5054270;28;20401;-78
2022/10/27 04:56:11;;;;;;;11.13;4.47;;;;;;;12.81;80.91;101119.31;5061324;28;20808;-79
2022/10/27 04:58:36;;;;;;;9.97;4.27;;;;;;;12.80;81.08;101133.16;5052912;28;20951;-79
2022/10/27 05:01:06;;;;;;;3.20;3.00;;;;;;;12.81;81.03;101141.06;5048954;28;20412;-80
2022/10/27 05:03:32;;;;;;;8.88;2.90;;;;;;;12.83;81.25;101135.41;5049308;28;20774;-77
2022/10/27 05:05:58;;;;;;;4.43;3.10;;;;;;;12.82;81.24;101140.00;5046701;28;20422;-79
2022/10/27 05:08:23;;;;;;;5.72;3.03;;;;;;;12.77;81.32;101133.66;5046331;28;20870;-80
2022/10/27 05:10:48;;;;;;;2.77;2.57;;;;;;;12.72;81.88;101137.09;5050397;28;20439;-83
2022/10/27 05:13:14;;;;;;;5.13;2.97;;;;;;;12.69;81.70;101134.84;5049420;28;20809;-78
2022/10/27 05:15:39;;;;;;;8.47;2.60;;;;;;;12.74;81.62;101139.59;5049279;28;20471;-78
2022/10/27 05:18:04;;;;;;;15.97;3.23;;;;;;;12.77;81.38;101139.94;5054945;28;20489;-81
2022/10/27 05:20:29;;;;;;;6.17;2.63;;;;;;;12.75;81.78;101142.03;5049790;28;20450;-81
2022/10/27 05:22:55;;;;;;;6.57;3.10;;;;;;;12.77;81.87;101141.81;5039130;28;20400;-77
2022/10/27 05:25:20;;;;;;;10.05;2.67;;;;;;;12.77;81.67;101148.09;5048512;28;20504;-78
2022/10/27 05:27:45;;;;;;;5.13;3.00;;;;;;;12.81;81.80;101134.81;5028088;28;20496;-78
2022/10/27 05:30:11;;;;;;;11.33;3.23;;;;;;;12.84;81.37;101139.78;5048982;28;20472;-78
2022/10/27 05:32:37;;;;;;;6.53;3.15;;;;;;;12.86;81.45;101134.91;5041519;28;20424;-78
2022/10/27 05:35:03;;;;;;;8.27;3.58;;;;;;;12.89;81.76;101142.59;5050711;28;20403;-80
2022/10/27 05:37:28;;;;;;;8.82;3.40;;;;;;;12.87;81.76;101142.00;5047560;28;20884;-79
2022/10/27 05:39:54;;;;;;;7.23;3.13;;;;;;;12.84;81.96;101137.84;5051849;28;20397;-77
2022/10/27 05:42:19;;;;;;;6.50;2.87;;;;;;;12.83;81.98;101149.00;5059004;28;20420;-76
2022/10/27 05:44:44;;;;;;;6.07;2.80;;;;;;;12.82;82.02;101148.16;5059874;28;20443;-78
2022/10/27 05:47:10;;;;;;;11.40;3.30;;;;;;;12.79;82.21;101145.94;5040255;28;20417;-78
2022/10/27 05:49:35;;;;;;;9.13;3.40;;;;;;;12.78;82.12;101133.41;5055210;28;20413;-79
2022/10/27 05:52:00;;;;;;;9.13;3.00;;;;;;;12.80;82.05;101127.72;5055593;28;21007;-78
2022/10/27 05:54:25;;;;;;;8.43;2.60;;;;;;;12.78;82.03;101125.25;5038203;28;20412;-79
2022/10/27 05:56:51;;;;;;;13.03;3.00;;;;;;;12.77;82.09;101112.72;5052405;28;20397;-78
2022/10/27 05:59:16;;;;;;;7.50;2.50;;;;;;;12.78;81.78;101114.34;5040978;28;20493;-77
2022/10/27 06:01:42;;;;;;;19.17;2.60;;;;;;;12.75;82.10;101119.47;5032886;28;20513;-78
2022/10/27 06:04:07;;;;;;;8.07;2.43;;;;;;;12.65;82.07;101121.97;5034547;28;20492;-78
2022/10/27 06:06:32;;;;;;;15.43;2.90;;;;;;;12.56;82.39;101134.31;5029612;28;20865;-78
2022/10/27 06:08:58;;;;;;;14.20;3.50;;;;;;;12.54;82.76;101134.56;5047233;28;20478;-78
2022/10/27 06:11:23;;;;;;;6.27;2.83;;;;;;;12.60;82.39;101133.59;5047874;28;20415;-78
2022/10/27 06:13:50;;;;;;;18.47;3.90;;;;;;;12.55;82.45;101132.66;5057751;28;20414;-78
2022/10/27 06:16:15;;;;;;;9.40;3.90;;;;;;;12.48;82.73;101140.94;5042908;28;20866;-78
2022/10/27 06:18:40;;;;;;;3.35;2.67;;;;;;;12.54;82.85;101141.91;5031758;28;20409;-77
2022/10/27 06:21:06;;;;;;;3.97;2.77;;;;;;;12.59;82.30;101139.25;5055557;28;20389;-78
2022/10/27 06:23:31;;;;;;;2.60;2.47;;;;;;;12.51;82.23;101143.22;5041259;28;20415;-78
2022/10/27 06:25:56;;;;;;;4.95;2.40;;;;;;;12.49;82.58;101150.75;5041294;28;20392;-78
2022/10/27 06:28:21;;;;;;;9.07;2.90;;;;;;;12.45;82.87;101155.84;5057736;28;20482;-79
2022/10/27 06:30:47;;;;;;;4.03;2.60;;;;;;;12.43;82.93;101165.31;5062365;28;20425;-78
2022/10/27 06:33:12;;;;;;;6.13;2.77;;;;;;;12.42;83.14;101161.78;5043521;28;20413;-79
2022/10/27 06:35:37;;;;;;;13.63;3.33;;;;;;;12.42;82.87;101161.78;5026372;28;20416;-79
2022/10/27 06:38:03;;;;;;;9.90;3.67;;;;;;;12.40;83.23;101176.69;5054447;28;20856;-79
2022/10/27 06:40:28;;;;;;;13.00;3.67;;;;;;;12.43;83.60;101179.75;5063421;28;20405;-78
2022/10/27 06:42:53;;;;;;;7.67;4.07;;;;;;;12.55;83.33;101181.59;5035479;28;20440;-79
2022/10/27 06:45:19;;;;;;;10.27;4.40;;;;;;;12.61;83.00;101184.22;5054161;28;20483;-78
2022/10/27 06:47:45;;;;;;;6.87;3.53;;;;;;;12.66;82.91;101176.13;5052957;28;20398;-78
2022/10/27 06:50:11;;;;;;;4.97;3.77;;;;;;;12.71;82.96;101180.88;5061910;28;20469;-79
2022/10/27 06:52:38;;;;;;;6.80;4.05;;;;;;;12.71;82.95;101184.38;5063181;28;20432;-78
2022/10/27 06:55:04;;;;;;;6.78;4.45;;;;;;;12.75;82.70;101187.44;5041053;28;20411;-78
2022/10/27 06:57:38;;;;;;;21.48;4.97;;;;;;;12.77;82.83;101196.22;5067535;28;20392;-78
2022/10/27 07:00:03;;;;;;;22.05;4.85;;;;;;;12.72;83.31;101196.91;5063072;28;20407;-79
2022/10/27 07:02:29;;;;;;;10.30;4.55;;;;;;;12.79;83.42;101197.63;5034656;28;20835;-79
2022/10/27 07:04:55;;;;;;;8.63;4.33;;;;;;;12.78;83.54;101195.13;5043553;28;20766;-79
2022/10/27 07:07:20;;;;;;;27.60;5.43;;;;;;;12.76;83.63;101194.56;5062211;28;20388;-79
2022/10/27 07:09:45;;;;;;;26.17;4.77;;;;;;;12.79;83.31;101191.34;5058668;28;20498;-78
2022/10/27 07:12:10;;;;;;;9.17;4.87;;;;;;;12.83;83.57;101189.81;5063621;28;20488;-78
2022/10/27 07:14:36;;;;;;;11.80;5.30;;;;;;;12.93;83.57;101199.00;5051587;28;20922;-78
2022/10/27 07:17:01;;;;;;;9.53;4.90;;;;;;;12.98;83.52;101200.97;5059606;28;20502;-79
2022/10/27 07:19:26;;;;;;;7.87;4.77;;;;;;;13.03;83.58;101209.25;5059404;28;20409;-79
2022/10/27 07:21:52;;;;;;;5.20;4.33;;;;;;;13.08;83.14;101201.16;5053114;28;20405;-78
2022/10/27 07:24:17;;;;;;;5.90;4.03;;;;;;;13.13;83.27;101205.91;5065602;28;20863;-78
2022/10/27 07:26:42;;;;;;;7.40;4.13;;;;;;;13.15;83.46;101206.50;5048936;28;20407;-78
2022/10/27 07:29:07;;;;;;;9.90;4.83;;;;;;;13.18;83.48;101211.44;5037520;28;20824;-78
2022/10/27 07:31:33;;;;;;;12.87;4.73;;;;;;;13.24;83.32;101219.47;5058483;28;20895;-79
2022/10/27 07:33:58;;;;;;;7.32;4.70;;;;;;;13.28;83.49;101222.53;5061990;28;20978;-78
2022/10/27 07:36:23;;;;;;;15.17;4.77;;;;;;;13.33;83.63;101222.63;5044309;28;20755;-78
2022/10/27 07:38:49;;;;;;;17.00;5.70;;;;;;;13.34;83.71;101232.44;5046768;28;20438;-79
2022/10/27 07:41:14;;;;;;;12.87;6.10;;;;;;;13.34;83.83;101227.00;5048776;28;20450;-79
2022/10/27 07:43:40;;;;;;;13.10;4.43;;;;;;;13.39;83.88;101222.47;5051443;28;20887;-78
2022/10/27 07:46:05;;;;;;;11.88;3.70;;;;;;;13.41;83.67;101230.38;5035923;28;20438;-78
2022/10/27 07:48:31;;;;;;;7.47;3.72;;;;;;;13.44;83.74;101221.72;5037502;28;20956;-78
2022/10/27 07:50:56;;;;;;;8.80;4.47;;;;;;;13.49;83.65;101222.66;5054118;28;20906;-79
2022/10/27 07:53:21;;;;;;;10.80;4.53;;;;;;;13.56;83.75;101218.94;5057743;28;20416;-79
2022/10/27 07:55:46;;;;;;;14.07;4.40;;;;;;;13.60;83.52;101220.13;5066557;28;20395;-78
2022/10/27 07:58:14;;;;;;;9.33;4.47;;;;;;;13.59;83.98;101224.75;5066664;28;20433;-79
2022/10/27 08:00:42;;;;;;;12.93;4.75;;;;;;;13.59;83.75;101227.47;5066727;28;20392;-78
2022/10/27 08:03:12;;;;;;;9.60;4.60;;;;;;;13.64;83.92;101229.44;5043243;28;20401;-79
2022/10/27 08:05:37;;;;;;;10.57;4.80;;;;;;;13.66;84.13;101232.75;5052772;28;20490;-78
2022/10/27 08:08:05;;;;;;;23.15;4.82;;;;;;;13.70;84.14;101225.75;5065441;28;20483;-78
2022/10/27 08:10:32;;;;;;;14.55;4.25;;;;;;;13.71;83.92;101230.94;5062638;28;20449;-79
2022/10/27 08:12:57;;;;;;;5.95;4.00;;;;;;;13.76;84.01;101235.66;5058466;28;20476;-78
2022/10/27 08:15:23;;;;;;;11.82;4.80;;;;;;;13.83;84.12;101228.13;5065945;28;20471;-79
2022/10/27 08:17:56;;;;;;;20.93;4.33;;;;;;;13.80;84.32;101226.72;5063579;28;20750;-78
2022/10/27 08:20:22;;;;;;;7.28;5.10;;;;;;;13.88;84.49;101233.66;5043317;28;20407;-79
2022/10/27 08:23:10;;;;;;;13.82;5.95;;;;;;;13.99;84.33;101232.75;5046541;28;20952;-79
2022/10/27 08:25:35;;;;;;;8.35;5.28;;;;;;;14.02;84.26;101235.00;5049357;28;20420;-79
2022/10/27 08:28:00;;;;;;;11.17;5.20;;;;;;;14.08;84.24;101238.59;5054961;28;20455;-79
2022/10/27 08:30:27;;;;;;;7.80;5.10;;;;;;;14.08;84.31;101242.16;5064406;28;20406;-79
2022/10/27 08:32:57;;;;;;;5.50;4.50;;;;;;;14.12;84.34;101239.78;5048915;28;20417;-78
2022/10/27 08:35:24;;;;;;;9.20;4.77;;;;;;;14.19;84.23;101238.53;5065433;28;20410;-78
2022/10/27 08:37:57;;;;;;;20.63;5.90;;;;;;;14.23;84.18;101236.94;5068811;28;20897;-78
2022/10/27 08:40:22;;;;;;;8.60;4.88;;;;;;;14.19;84.45;101234.97;5069122;28;20432;-78
2022/10/27 08:42:53;;;;;;;13.80;4.73;;;;;;;14.16;84.89;101236.28;5067929;28;20448;-78
2022/10/27 08:45:29;;;;;;;8.93;5.37;;;;;;;14.17;84.86;101242.56;5066150;28;20468;-78
2022/10/27 08:47:57;;;;;;;12.75;5.50;;;;;;;14.17;85.26;101248.84;5062387;28;20384;-78
2022/10/27 08:50:27;;;;;;;9.60;5.38;;;;;;;14.20;85.08;101242.88;5065975;28;20468;-78
2022/10/27 08:53:04;;;;;;;8.68;4.88;;;;;;;14.26;85.55;101247.34;5046906;28;20399;-78
2022/10/27 08:55:37;;;;;;;6.45;5.32;;;;;;;14.36;84.63;101238.50;5070474;28;20407;-78
2022/10/27 08:58:30;;;;;;;6.05;5.45;;;;;;;14.44;84.72;101236.19;5066762;28;20453;-78
2022/10/27 09:00:57;;;;;;;12.33;5.83;;;;;;;14.54;84.45;101240.97;5032874;28;21040;-78
2022/10/27 09:04:00;;;;;;;7.80;5.28;;;;;;;14.60;84.13;101241.84;5069263;28;20387;-78
2022/10/27 09:06:29;;;;;;;5.68;5.13;;;;;;;14.67;84.27;101240.59;5066672;28;20476;-78
2022/10/27 09:09:11;;;;;;;6.82;5.50;;;;;;;14.78;83.93;101247.00;5067042;28;20745;-78
2022/10/27 09:11:42;;;;;;;9.57;5.60;;;;;;;14.88;83.43;101245.25;5078186;28;20401;-78
2022/10/27 09:14:25;;;;;;;8.25;5.93;;;;;;;14.90;83.53;101258.63;5055981;28;20401;-78
2022/10/27 09:16:56;;;;;;;6.70;5.97;;;;;;;14.87;83.63;101250.94;5059850;28;20396;-78
2022/10/27 09:19:40;;;;;;;11.15;6.50;;;;;;;14.94;83.71;101252.41;5064907;28;20459;-78
2022/10/27 09:22:12;;;;;;;6.57;5.82;;;;;;;14.96;83.68;101249.41;5065166;28;20464;-78
2022/10/27 09:24:37;;;;;;;11.17;6.20;;;;;;;14.90;83.88;101248.53;5068766;28;20981;-78
2022/10/27 09:27:04;;;;;;;8.07;6.83;;;;;;;14.94;84.11;101251.59;5046120;28;20441;-78
2022/10/27 09:29:34;;;;;;;9.52;6.50;;;;;;;14.97;83.95;101243.72;5045951;28;20766;-78
2022/10/27 09:32:10;;;;;;;7.22;6.57;;;;;;;15.12;83.89;101242.22;5067350;28;20405;-78
2022/10/27 09:35:00;;;;;;;8.88;6.32;;;;;;;15.21;83.39;101252.47;5064089;28;20477;-78
2022/10/27 09:37:27;;;;;;;10.02;6.70;;;;;;;15.25;83.34;101244.53;5064684;28;20872;-78
2022/10/27 09:39:53;;;;;;;7.47;6.13;;;;;;;15.32;83.15;101248.72;5070931;28;20412;-78
2022/10/27 09:42:20;;;;;;;8.55;6.25;;;;;;;15.46;82.75;101247.25;5068271;28;20411;-78
2022/10/27 09:44:57;;;;;;;8.15;6.68;;;;;;;15.48;82.92;101252.47;5065626;28;20963;-78
2022/10/27 09:47:25;;;;;;;9.25;6.22;;;;;;;15.53;82.70;101252.53;5043418;28;20405;-78
2022/10/27 09:49:52;;;;;;;8.45;6.80;;;;;;;15.54;82.86;101243.28;5038709;28;20490;-78
2022/10/27 09:52:33;;;;;;;8.23;6.40;;;;;;;15.45;83.10;101236.56;5042901;28;20392;-78
2022/10/27 09:54:58;;;;;;;7.53;6.70;;;;;;;15.48;82.96;101241.53;5044952;28;20419;-78
2022/10/27 09:57:27;;;;;;;7.70;6.90;;;;;;;15.60;82.80;101239.50;5047599;28;20876;-78
2022/10/27 10:00:08;;;;;;;8.77;7.07;;;;;;;15.84;81.96;101229.06;5067141;28;20403;-78
2022/10/27 10:02:38;;;;;;;10.55;7.10;;;;;;;16.21;80.94;101226.31;5050222;28;20739;-78
2022/10/27 10:05:20;;;;;;;8.37;7.17;;;;;;;16.82;79.66;101230.25;5059930;28;20415;-78
2022/10/27 10:07:46;;;;;;;9.60;7.30;;;;;;;17.12;77.38;101231.16;5030213;28;20892;-78
2022/10/27 10:10:28;;;;;;;9.53;7.63;;;;;;;16.76;78.17;101231.31;5056969;28;20409;-79
2022/10/27 10:13:11;;;;;;;13.05;7.90;;;;;;;16.43;79.21;101227.00;5076889;28;20915;-78
2022/10/27 10:15:42;;;;;;;10.07;8.02;;;;;;;16.74;79.02;101228.00;5047400;28;20394;-79
2022/10/27 10:18:28;;;;;;;8.85;7.22;;;;;;;18.17;73.86;101226.06;5067878;28;20388;-78
2022/10/27 10:21:13;;;;;;;11.97;8.57;;;;;;;18.06;72.69;101232.66;5061157;28;20389;-78
2022/10/27 10:23:48;;;;;;;13.13;7.60;;;;;;;17.45;74.66;101227.13;5053906;28;20787;-79
2022/10/27 10:26:20;;;;;;;11.23;8.25;;;;;;;17.21;75.65;101239.69;5044865;28;20400;-79
2022/10/27 10:28:46;;;;;;;13.25;8.75;;;;;;;17.07;76.23;101244.00;5060024;28;20473;-79
2022/10/27 10:31:19;;;;;;;10.60;7.30;;;;;;;16.93;76.68;101232.72;5062432;28;20399;-79
2022/10/27 10:33:46;;;;;;;11.90;8.35;;;;;;;16.77;77.13;101228.28;5065270;28;20403;-79
2022/10/27 10:36:33;;;;;;;12.02;8.90;;;;;;;16.64;77.51;101237.00;5055706;28;20391;-79
2022/10/27 10:38:59;;;;;;;11.50;9.05;;;;;;;16.59;77.68;101228.75;5064030;28;20747;-80
2022/10/27 10:41:28;;;;;;;9.45;8.13;;;;;;;16.54;77.82;101229.53;5058488;28;20890;-80
2022/10/27 10:44:15;;;;;;;9.77;7.60;;;;;;;16.46;78.22;101218.28;5049221;28;20881;-80
2022/10/27 10:46:50;;;;;;;11.40;8.00;;;;;;;16.39;78.47;101221.25;5046017;28;20828;-80
2022/10/27 10:49:21;;;;;;;12.77;8.35;;;;;;;16.37;78.31;101225.31;5067204;28;20415;-80
2022/10/27 10:51:54;;;;;;;9.65;7.97;;;;;;;16.30;78.87;101216.53;5067326;28;20732;-77
2022/10/27 10:54:34;;;;;;;8.77;7.53;;;;;;;16.24;79.24;101209.34;5052624;28;20417;-80
2022/10/27 10:57:00;;;;;;;15.32;7.18;;;;;;;16.21;79.27;101210.72;5061054;28;20408;-80
2022/10/27 10:59:29;;;;;;;10.43;6.88;;;;;;;16.19;79.22;101207.44;5055883;28;20404;-80
2022/10/27 11:02:05;;;;;;;9.02;6.47;;;;;;;16.18;79.47;101194.84;5035736;28;20749;-79
2022/10/27 11:04:41;;;;;;;9.05;6.63;;;;;;;16.19;79.69;101191.03;5058834;28;20430;-79
2022/10/27 11:07:18;;;;;;;8.60;7.50;;;;;;;16.23;80.15;101188.59;5053484;28;20420;-79
2022/10/27 11:10:01;;;;;;;9.57;6.87;;;;;;;16.25;80.23;101180.94;5059246;28;20417;-79
2022/10/27 11:12:33;;;;;;;11.32;7.82;;;;;;;16.26;80.29;101180.69;5058884;28;20504;-80
2022/10/27 11:15:04;;;;;;;12.35;7.43;;;;;;;16.30;80.48;101178.25;5059123;28;20407;-79
2022/10/27 11:17:33;;;;;;;11.68;6.68;;;;;;;16.29;80.74;101173.84;5055132;28;20408;-79
2022/10/27 11:19:58;;;;;;;11.18;7.75;;;;;;;16.28;80.75;101159.34;5049595;28;20509;-79
2022/10/27 11:22:25;;;;;;;14.80;7.65;;;;;;;16.33;80.89;101166.75;5057713;28;21720;-79
2022/10/27 11:24:57;;;;;;;15.15;7.32;;;;;;;16.36;80.78;101152.56;5052782;28;20423;-82
2022/10/27 11:27:28;;;;;;;8.73;6.57;;;;;;;16.39;80.86;101157.50;5056905;28;20911;-80
2022/10/27 11:30:05;;;;;;;13.27;7.15;;;;;;;16.43;80.89;101155.88;5054945;28;20875;-80
2022/10/27 11:32:46;;;;;;;10.80;7.03;;;;;;;16.43;81.16;101148.47;5039705;28;20539;-79